createdAt,value
2022-11-08T00:01:02.585Z,78.00
2022-11-08T00:06:23.833Z,77.23
2022-11-08T00:11:44.299Z,77.42
2022-11-08T00:16:47.584Z,76.46
2022-11-08T00:21:49.483Z,76.68
2022-11-08T00:26:51.455Z,76.96
2022-11-08T00:31:54.735Z,77.24
2022-11-08T00:36:56.641Z,76.30
2022-11-08T00:41:58.608Z,76.26
2022-11-08T00:47:01.947Z,76.76
2022-11-08T00:52:03.953Z,76.54
2022-11-08T00:57:06.366Z,78.13
2022-11-08T01:02:09.715Z,78.09
2022-11-08T01:07:11.691Z,78.25
2022-11-08T01:12:13.680Z,77.35
2022-11-08T01:17:17.012Z,79.16
2022-11-08T01:22:19.025Z,80.00
2022-11-08T01:27:21.024Z,80.83
2022-11-08T01:32:24.510Z,81.26
2022-11-08T01:37:26.499Z,82.02
2022-11-08T01:42:28.493Z,83.22
2022-11-08T01:47:31.869Z,82.25
2022-11-08T01:52:34.873Z,83.09
2022-11-08T01:57:40.180Z,84.07
2022-11-08T02:02:44.255Z,84.64
2022-11-08T02:07:46.307Z,84.81
2022-11-08T02:12:48.238Z,85.26
2022-11-08T02:17:51.567Z,85.31
2022-11-08T02:22:55.896Z,85.82
2022-11-08T02:27:59.283Z,85.71
2022-11-08T02:33:01.377Z,86.58
2022-11-08T02:38:03.273Z,86.35
2022-11-08T02:43:06.743Z,87.33
2022-11-08T02:48:08.907Z,87.06
2022-11-08T02:53:10.996Z,87.96
2022-11-08T02:58:14.435Z,87.44
2022-11-08T03:03:16.351Z,87.59
2022-11-08T03:08:18.494Z,86.69
2022-11-08T03:13:22.178Z,87.29
2022-11-08T03:18:24.097Z,88.39
2022-11-08T03:23:26.093Z,88.43
2022-11-08T03:28:29.617Z,87.92
2022-11-08T03:33:31.721Z,88.03
2022-11-08T03:38:33.687Z,88.74
2022-11-08T03:43:36.979Z,88.81
2022-11-08T03:48:38.942Z,88.38
2022-11-08T03:53:40.839Z,88.59
2022-11-08T03:58:44.366Z,88.06
2022-11-08T04:03:46.356Z,89.15
2022-11-08T04:08:48.332Z,88.43
2022-11-08T04:14:10.297Z,87.66
2022-11-08T04:19:30.536Z,88.38
2022-11-08T04:24:32.402Z,88.43
2022-11-08T04:29:35.741Z,89.06
2022-11-08T04:34:37.704Z,88.96
2022-11-08T04:39:39.686Z,87.92
2022-11-08T04:44:42.922Z,88.01
2022-11-08T04:49:44.861Z,87.75
2022-11-08T04:54:46.761Z,87.64
2022-11-08T04:59:50.507Z,87.65
2022-11-08T05:04:52.386Z,87.41
2022-11-08T05:09:59.890Z,87.92
2022-11-08T05:15:06.866Z,87.31
2022-11-08T05:20:28.588Z,85.84
2022-11-08T05:25:30.448Z,86.42
2022-11-08T05:30:33.791Z,86.29
2022-11-08T05:35:35.756Z,86.36
2022-11-08T05:40:37.634Z,86.28
2022-11-08T05:45:41.004Z,86.88
2022-11-08T05:50:43.537Z,87.80
2022-11-08T05:55:46.391Z,88.27
2022-11-08T06:00:49.609Z,88.05
2022-11-08T06:05:51.550Z,87.79
2022-11-08T06:10:53.635Z,88.35
2022-11-08T06:15:59.205Z,88.04
2022-11-08T06:21:01.129Z,88.58
2022-11-08T06:26:03.690Z,88.60
2022-11-08T06:31:06.955Z,87.69
2022-11-08T06:36:09.240Z,88.11
2022-11-08T06:41:14.972Z,88.10
2022-11-08T06:46:18.181Z,87.22
2022-11-08T06:51:20.804Z,87.43
2022-11-08T06:56:22.784Z,87.17
2022-11-08T07:01:26.133Z,85.96
2022-11-08T07:06:28.049Z,84.90
2022-11-08T07:11:29.875Z,84.53
2022-11-08T07:16:33.030Z,84.33
2022-11-08T07:21:34.779Z,83.50
2022-11-08T07:26:36.637Z,82.49
2022-11-08T07:31:39.919Z,80.81
2022-11-08T07:36:41.689Z,79.84
2022-11-08T07:41:43.485Z,78.63
2022-11-08T07:46:46.615Z,74.54
2022-11-08T07:51:48.388Z,66.09
2022-11-08T07:56:51.280Z,57.39
2022-11-08T08:01:57.575Z,46.37
2022-11-08T08:07:02.153Z,46.14
2022-11-08T08:12:20.181Z,45.54
2022-11-08T08:17:30.353Z,44.26
2022-11-08T08:22:32.128Z,44.29
2022-11-08T08:27:33.986Z,46.73
2022-11-08T08:32:37.126Z,42.55
2022-11-08T08:38:00.308Z,42.78
2022-11-08T08:43:03.470Z,37.10
2022-11-08T08:48:33.283Z,31.04
2022-11-08T08:53:43.940Z,26.55
2022-11-08T09:04:24.208Z,24.99
2022-11-08T09:09:31.185Z,26.05
2022-11-08T09:14:32.914Z,25.15
2022-11-08T09:19:36.089Z,23.28
2022-11-08T09:24:37.895Z,23.15
2022-11-08T09:29:39.650Z,22.44
2022-11-08T09:34:42.680Z,23.87
2022-11-08T09:39:44.451Z,26.52
2022-11-08T09:44:58.030Z,26.31
2022-11-08T09:50:05.011Z,27.08
2022-11-08T09:55:14.164Z,25.38
2022-11-08T10:00:16.180Z,22.23
2022-11-08T10:05:19.260Z,24.44
2022-11-08T10:10:36.801Z,27.02
2022-11-08T10:15:42.413Z,25.12
2022-11-08T10:20:52.643Z,25.06
2022-11-08T10:25:55.049Z,25.60
2022-11-08T10:30:56.791Z,28.59
2022-11-08T10:36:02.674Z,34.50
2022-11-08T10:41:08.237Z,37.69
2022-11-08T10:46:13.725Z,39.93
2022-11-08T10:51:16.813Z,41.46
2022-11-08T10:56:19.447Z,42.50
2022-11-08T11:01:22.634Z,37.32
2022-11-08T11:06:29.720Z,29.20
2022-11-08T11:11:36.188Z,27.05
2022-11-08T11:16:38.046Z,27.18
2022-11-08T11:21:41.178Z,25.54
2022-11-08T11:26:44.240Z,25.74
2022-11-08T11:31:46.955Z,27.48
2022-11-08T11:36:53.562Z,29.21
2022-11-08T11:41:56.647Z,30.49
2022-11-08T11:47:00.065Z,28.26
2022-11-08T11:52:03.252Z,28.56
2022-11-08T11:57:06.401Z,29.52
2022-11-08T12:02:32.506Z,31.20
2022-11-08T12:07:36.824Z,32.58
2022-11-08T12:12:45.018Z,34.77
2022-11-08T12:17:53.459Z,36.64
2022-11-08T12:23:03.505Z,37.45
2022-11-08T12:28:16.170Z,38.69
2022-11-08T12:33:24.484Z,40.46
2022-11-08T12:38:30.417Z,41.71
2022-11-08T12:43:39.701Z,41.57
2022-11-08T12:48:52.473Z,41.82
2022-11-08T12:54:03.096Z,42.25
2022-11-08T12:59:04.871Z,42.55
2022-11-08T13:04:46.272Z,44.23
2022-11-08T13:09:51.788Z,44.24
2022-11-08T13:14:53.555Z,44.14
2022-11-08T13:20:00.801Z,44.54
2022-11-08T13:25:08.574Z,45.47
2022-11-08T13:30:32.073Z,45.96
2022-11-08T13:35:35.510Z,46.27
2022-11-08T13:40:44.670Z,46.32
2022-11-08T13:45:46.517Z,47.05
2022-11-08T13:50:52.392Z,46.83
2022-11-08T13:55:57.036Z,47.11
2022-11-08T14:00:58.940Z,47.79
2022-11-08T14:06:00.979Z,47.16
2022-11-08T14:11:25.200Z,47.78
2022-11-08T14:16:28.517Z,48.86
2022-11-08T14:21:30.265Z,48.45
2022-11-08T14:26:33.481Z,48.79
2022-11-08T14:31:35.259Z,49.58
2022-11-08T14:36:37.141Z,50.73
2022-11-08T14:41:40.273Z,50.37
2022-11-08T14:46:42.269Z,50.67
2022-11-08T14:51:44.384Z,50.84
2022-11-08T14:56:48.171Z,50.74
2022-11-08T15:01:49.965Z,50.46
2022-11-08T15:06:52.885Z,51.36
2022-11-08T15:11:58.391Z,51.81
2022-11-08T15:17:03.108Z,51.90
2022-11-08T15:22:23.496Z,51.47
2022-11-08T15:27:26.707Z,52.05
2022-11-08T15:32:33.373Z,52.01
2022-11-08T15:37:36.030Z,51.87
2022-11-08T15:42:44.590Z,52.36
2022-11-08T15:47:47.160Z,52.49
2022-11-08T15:52:49.867Z,52.26
2022-11-08T15:57:53.120Z,52.27
2022-11-08T16:02:55.072Z,52.28
2022-11-08T16:07:56.817Z,52.36
2022-11-08T16:13:02.827Z,53.20
2022-11-08T16:18:04.706Z,53.40
2022-11-08T16:23:07.921Z,52.97
2022-11-08T16:28:14.902Z,53.21
2022-11-08T16:33:19.222Z,53.35
2022-11-08T16:38:22.899Z,53.57
2022-11-08T16:43:26.120Z,53.82
2022-11-08T16:48:27.868Z,53.45
2022-11-08T16:53:29.883Z,53.52
2022-11-08T16:58:33.078Z,53.67
2022-11-08T17:03:34.953Z,53.53
2022-11-08T17:08:37.056Z,52.99
2022-11-08T17:13:40.820Z,52.42
2022-11-08T17:18:42.601Z,52.09
2022-11-08T17:23:44.375Z,52.05
2022-11-08T17:28:47.452Z,51.70
2022-11-08T17:33:49.250Z,51.58
2022-11-08T17:38:51.227Z,51.71
2022-11-08T17:43:54.341Z,51.95
2022-11-08T17:48:56.096Z,51.43
2022-11-08T17:53:57.877Z,51.60
2022-11-08T17:59:01.021Z,51.75
2022-11-08T18:04:03.530Z,52.05
2022-11-08T18:09:05.354Z,52.61
2022-11-08T18:14:08.442Z,52.91
2022-11-08T18:19:10.261Z,52.86
2022-11-08T18:24:12.255Z,52.68
2022-11-08T18:29:15.359Z,53.09
2022-11-08T18:34:17.115Z,52.89
2022-11-08T18:39:19.959Z,53.05
2022-11-08T18:44:23.224Z,53.10
2022-11-08T18:49:25.268Z,53.47
2022-11-08T18:54:27.028Z,53.25
2022-11-08T18:59:30.222Z,53.38
2022-11-08T19:04:31.995Z,53.45
2022-11-08T19:09:34.084Z,53.92
2022-11-08T19:14:37.471Z,54.09
2022-11-08T19:19:39.388Z,54.26
2022-11-08T19:24:41.165Z,53.76
2022-11-08T19:29:44.223Z,53.40
2022-11-08T19:34:47.075Z,53.87
2022-11-08T19:39:48.921Z,54.00
2022-11-08T19:44:52.053Z,53.33
2022-11-08T19:49:53.921Z,53.83
2022-11-08T19:54:55.688Z,53.08
2022-11-08T19:59:58.788Z,54.05
2022-11-08T20:05:00.509Z,53.73
2022-11-08T20:10:02.248Z,53.32
2022-11-08T20:15:06.817Z,53.44
2022-11-08T20:20:09.111Z,54.30
2022-11-08T20:25:11.647Z,54.08
2022-11-08T20:30:14.968Z,54.32
2022-11-08T20:35:19.022Z,54.53
2022-11-08T20:40:25.003Z,53.90
2022-11-08T20:45:28.177Z,53.77
2022-11-08T20:50:30.094Z,54.74
2022-11-08T20:55:31.944Z,54.35
2022-11-08T21:00:57.396Z,53.93
2022-11-08T21:05:58.465Z,53.92
2022-11-08T21:11:00.393Z,54.72
2022-11-08T21:16:28.108Z,54.94
2022-11-08T21:21:26.976Z,54.90
2022-11-08T21:26:28.850Z,55.21
2022-11-08T21:31:31.983Z,54.80
2022-11-08T21:36:33.966Z,54.88
2022-11-08T21:41:35.763Z,54.75
2022-11-08T21:46:38.961Z,54.58
2022-11-08T21:51:40.771Z,54.66
2022-11-08T21:56:42.580Z,54.67
2022-11-08T22:01:45.616Z,54.56
2022-11-08T22:06:47.961Z,54.09
2022-11-08T22:11:49.940Z,54.60
2022-11-08T22:16:53.123Z,54.99
2022-11-08T22:21:54.884Z,54.89
2022-11-08T22:26:56.635Z,55.16
2022-11-08T22:31:59.673Z,55.03
2022-11-08T22:37:01.466Z,55.60
2022-11-08T22:42:03.455Z,55.43
2022-11-08T22:47:06.633Z,55.58
2022-11-08T22:52:08.382Z,55.66
2022-11-08T22:57:10.151Z,56.06
2022-11-08T23:02:13.282Z,56.71
2022-11-08T23:07:15.054Z,56.66
2022-11-08T23:12:35.518Z,56.86
2022-11-08T23:17:38.636Z,56.46
2022-11-08T23:22:58.904Z,56.31
2022-11-08T23:28:19.266Z,56.17
2022-11-08T23:33:22.609Z,56.56
2022-11-08T23:38:24.646Z,57.07
2022-11-08T23:43:44.953Z,56.58
2022-11-08T23:48:48.060Z,56.34
2022-11-08T23:53:49.783Z,55.99
2022-11-08T23:58:51.526Z,55.72
